createdAt,value
2018-12-23T00:01:36.978Z,75.71
2018-12-23T00:04:06.223Z,74.95
2018-12-23T00:06:35.899Z,76.40
2018-12-23T00:09:07.607Z,74.73
2018-12-23T00:11:36.411Z,74.88
2018-12-23T00:14:06.939Z,76.17
2018-12-23T00:16:37.904Z,73.93
2018-12-23T00:19:07.442Z,75.54
2018-12-23T00:21:37.631Z,74.22
2018-12-23T00:24:08.542Z,75.41
2018-12-23T00:26:38.154Z,73.75
2018-12-23T00:29:06.667Z,76.99
2018-12-23T00:31:37.237Z,76.23
2018-12-23T00:34:07.062Z,76.34
2018-12-23T00:36:41.739Z,76.54
2018-12-23T00:39:11.015Z,76.92
2018-12-23T00:41:40.174Z,77.42
2018-12-23T00:44:09.032Z,78.05
2018-12-23T00:46:39.048Z,77.85
2018-12-23T00:49:10.151Z,77.38
2018-12-23T00:51:40.343Z,75.97
2018-12-23T00:54:10.791Z,77.97
2018-12-23T00:56:39.283Z,77.02
2018-12-23T00:59:15.254Z,78.79
2018-12-23T01:01:43.719Z,78.83
2018-12-23T01:04:13.802Z,78.42
2018-12-23T01:06:45.714Z,77.52
2018-12-23T01:09:14.993Z,78.47
2018-12-23T01:11:43.907Z,78.20
2018-12-23T01:14:12.840Z,78.42
2018-12-23T01:16:43.366Z,78.16
2018-12-23T01:19:13.156Z,78.37
2018-12-23T01:21:44.122Z,79.08
2018-12-23T01:24:13.119Z,77.70
2018-12-23T01:26:41.720Z,76.75
2018-12-23T01:29:13.873Z,77.91
2018-12-23T01:31:43.376Z,78.28
2018-12-23T01:34:12.439Z,78.52
2018-12-23T01:36:41.802Z,77.66
2018-12-23T01:39:12.439Z,77.98
2018-12-23T01:41:43.382Z,79.27
2018-12-23T01:44:12.020Z,77.30
2018-12-23T01:46:42.035Z,78.73
2018-12-23T01:49:11.253Z,77.72
2018-12-23T01:51:41.371Z,77.73
2018-12-23T01:54:10.981Z,78.52
2018-12-23T01:56:40.922Z,77.37
2018-12-23T01:59:09.780Z,77.49
2018-12-23T02:01:39.527Z,76.91
2018-12-23T02:04:11.218Z,76.77
2018-12-23T02:06:41.198Z,77.43
2018-12-23T02:09:10.941Z,77.39
2018-12-23T02:11:40.713Z,76.09
2018-12-23T02:14:10.222Z,76.29
2018-12-23T02:16:38.847Z,76.34
2018-12-23T02:19:08.764Z,76.80
2018-12-23T02:21:39.960Z,77.08
2018-12-23T02:24:09.377Z,76.99
2018-12-23T02:26:39.678Z,77.11
2018-12-23T02:29:08.706Z,76.00
2018-12-23T02:31:37.766Z,76.54
2018-12-23T02:34:07.295Z,75.60
2018-12-23T02:36:36.308Z,75.45
2018-12-23T02:39:07.844Z,76.55
2018-12-23T02:41:38.082Z,77.19
2018-12-23T02:44:10.052Z,77.21
2018-12-23T02:46:39.160Z,77.64
2018-12-23T02:49:08.934Z,76.89
2018-12-23T02:51:38.357Z,75.59
2018-12-23T02:54:07.770Z,76.66
2018-12-23T02:56:39.398Z,75.99
2018-12-23T02:59:09.266Z,75.74
2018-12-23T03:01:38.449Z,76.83
2018-12-23T03:04:07.591Z,76.15
2018-12-23T03:06:37.049Z,78.55
2018-12-23T03:09:08.142Z,78.60
2018-12-23T03:11:38.160Z,77.58
2018-12-23T03:14:07.614Z,77.36
2018-12-23T03:16:37.500Z,77.51
2018-12-23T03:19:06.715Z,76.96
2018-12-23T03:21:35.331Z,76.59
2018-12-23T03:24:05.448Z,76.48
2018-12-23T03:26:35.127Z,76.74
2018-12-23T03:29:05.305Z,75.90
2018-12-23T03:31:34.294Z,74.81
2018-12-23T03:34:05.327Z,77.05
2018-12-23T03:36:35.611Z,75.80
2018-12-23T03:39:06.745Z,76.00
2018-12-23T03:41:35.843Z,76.82
2018-12-23T03:44:07.440Z,75.66
2018-12-23T03:46:39.489Z,76.14
2018-12-23T03:49:09.753Z,73.49
2018-12-23T03:51:39.691Z,74.50
2018-12-23T03:54:12.591Z,76.26
2018-12-23T03:56:43.123Z,75.66
2018-12-23T03:59:12.248Z,75.11
2018-12-23T04:01:41.852Z,74.68
2018-12-23T04:04:12.812Z,75.18
2018-12-23T04:06:48.524Z,76.11
2018-12-23T04:09:18.154Z,75.93
2018-12-23T04:11:47.572Z,74.66
2018-12-23T04:14:16.152Z,75.53
2018-12-23T04:16:45.654Z,75.12
2018-12-23T04:19:14.431Z,76.02
2018-12-23T04:21:43.855Z,74.12
2018-12-23T04:24:13.856Z,72.27
2018-12-23T04:26:43.490Z,75.14
2018-12-23T04:29:13.387Z,75.53
2018-12-23T04:31:44.452Z,72.88
2018-12-23T04:34:13.108Z,74.66
2018-12-23T04:36:43.123Z,73.81
2018-12-23T04:39:12.931Z,74.23
2018-12-23T04:41:43.742Z,74.05
2018-12-23T04:44:14.089Z,73.38
2018-12-23T04:46:43.382Z,73.89
2018-12-23T04:49:11.910Z,72.01
2018-12-23T04:51:42.199Z,73.19
2018-12-23T04:54:11.641Z,72.67
2018-12-23T04:56:41.389Z,75.44
2018-12-23T04:59:11.343Z,75.23
2018-12-23T05:01:41.799Z,75.40
2018-12-23T05:04:11.274Z,77.05
2018-12-23T05:06:43.500Z,76.26
2018-12-23T05:09:14.045Z,74.55
2018-12-23T05:11:43.622Z,75.91
2018-12-23T05:14:13.038Z,75.52
2018-12-23T05:16:42.152Z,75.38
2018-12-23T05:22:23.102Z,76.07
2018-12-23T05:24:58.487Z,75.87
2018-12-23T05:27:28.050Z,75.69
2018-12-23T05:29:57.602Z,75.40
2018-12-23T05:32:31.035Z,75.93
2018-12-23T05:35:02.185Z,74.58
2018-12-23T05:37:39.184Z,72.61
2018-12-23T05:40:12.280Z,75.36
2018-12-23T05:42:43.936Z,73.87
2018-12-23T05:45:18.341Z,74.49
2018-12-23T05:47:49.757Z,74.04
2018-12-23T05:50:28.117Z,74.42
2018-12-23T05:52:57.629Z,74.86
2018-12-23T05:55:28.455Z,74.47
2018-12-23T05:57:59.521Z,75.10
2018-12-23T06:00:31.810Z,75.22
2018-12-23T06:03:01.483Z,75.88
2018-12-23T06:05:38.348Z,75.37
2018-12-23T06:08:09.275Z,75.02
2018-12-23T06:10:41.827Z,74.51
2018-12-23T06:13:11.386Z,74.99
2018-12-23T06:15:41.930Z,74.60
2018-12-23T06:18:11.530Z,72.26
2018-12-23T06:20:52.553Z,73.71
2018-12-23T06:23:22.198Z,74.25
2018-12-23T06:25:55.280Z,73.08
2018-12-23T06:28:26.119Z,72.42
2018-12-23T06:30:57.363Z,72.19
2018-12-23T06:33:31.072Z,71.75
2018-12-23T06:36:00.977Z,71.09
2018-12-23T06:38:34.638Z,72.60
2018-12-23T06:41:05.061Z,73.96
2018-12-23T06:43:40.457Z,74.30
2018-12-23T06:46:14.729Z,74.63
2018-12-23T06:48:44.245Z,74.78
2018-12-23T06:51:16.608Z,76.95
2018-12-23T06:53:50.352Z,76.07
2018-12-23T06:56:19.946Z,76.88
2018-12-23T06:58:49.474Z,77.98
2018-12-23T07:01:19.092Z,77.09
2018-12-23T07:03:53.258Z,78.60
2018-12-23T07:06:25.875Z,77.21
2018-12-23T07:09:01.774Z,75.22
2018-12-23T07:11:31.351Z,75.39
2018-12-23T07:14:02.160Z,77.38
2018-12-23T07:16:31.680Z,75.92
2018-12-23T07:19:03.733Z,74.42
2018-12-23T07:21:38.618Z,72.76
2018-12-23T07:24:09.475Z,71.53
2018-12-23T07:26:43.813Z,71.89
2018-12-23T07:29:16.988Z,71.35
2018-12-23T07:31:53.551Z,70.35
2018-12-23T07:34:23.098Z,71.06
2018-12-23T07:36:56.470Z,69.56
2018-12-23T07:39:27.174Z,70.62
2018-12-23T07:41:58.440Z,69.17
2018-12-23T07:44:27.953Z,69.04
2018-12-23T07:47:00.832Z,69.34
2018-12-23T07:49:32.014Z,70.07
2018-12-23T07:52:01.548Z,70.70
2018-12-23T07:54:31.449Z,70.94
2018-12-23T07:57:03.470Z,69.53
2018-12-23T07:59:34.140Z,73.70
2018-12-23T08:02:04.976Z,73.37
2018-12-23T08:04:34.644Z,72.85
2018-12-23T08:07:08.420Z,73.67
2018-12-23T08:09:38.801Z,73.63
2018-12-23T08:12:09.805Z,73.28
2018-12-23T08:14:40.639Z,74.04
2018-12-23T08:17:10.136Z,73.98
2018-12-23T08:19:44.940Z,74.07
2018-12-23T08:22:17.751Z,75.49
2018-12-23T08:24:47.694Z,76.72
2018-12-23T08:27:17.303Z,76.20
2018-12-23T08:29:49.050Z,75.80
2018-12-23T08:32:21.351Z,75.50
2018-12-23T08:34:57.017Z,75.90
2018-12-23T08:37:26.556Z,76.10
2018-12-23T08:40:00.251Z,76.55
2018-12-23T08:42:29.787Z,76.17
2018-12-23T08:44:59.631Z,74.93
2018-12-23T08:47:30.808Z,76.65
2018-12-23T08:50:03.480Z,76.27
2018-12-23T08:52:33.026Z,76.29
2018-12-23T08:55:02.654Z,76.10
2018-12-23T08:57:32.401Z,78.33
2018-12-23T09:00:01.967Z,78.01
2018-12-23T09:02:31.501Z,78.00
2018-12-23T09:05:04.082Z,78.81
2018-12-23T09:07:33.606Z,77.44
2018-12-23T09:10:12.400Z,77.27
2018-12-23T09:12:44.698Z,76.35
2018-12-23T09:15:23.345Z,76.00
2018-12-23T09:17:53.875Z,76.57
2018-12-23T09:20:26.476Z,75.57
2018-12-23T09:22:57.530Z,76.00
2018-12-23T09:25:31.214Z,74.97
2018-12-23T09:28:00.749Z,76.14
2018-12-23T09:30:30.341Z,75.96
2018-12-23T09:33:03.748Z,76.94
2018-12-23T09:35:33.323Z,76.73
2018-12-23T09:38:02.883Z,75.96
2018-12-23T09:40:35.441Z,75.61
2018-12-23T09:43:09.983Z,76.44
2018-12-23T09:45:39.545Z,75.41
2018-12-23T09:48:11.406Z,76.33
2018-12-23T09:50:45.299Z,77.27
2018-12-23T09:53:15.922Z,76.82
2018-12-23T09:55:45.523Z,76.96
2018-12-23T09:58:16.800Z,76.84
2018-12-23T10:00:49.192Z,76.61
2018-12-23T10:03:21.202Z,76.35
2018-12-23T10:05:50.720Z,76.80
2018-12-23T10:08:22.691Z,75.90
2018-12-23T10:10:52.809Z,76.04
2018-12-23T10:13:25.737Z,76.03
2018-12-23T10:15:59.275Z,76.34
2018-12-23T10:18:37.878Z,75.80
2018-12-23T10:21:07.549Z,75.70
2018-12-23T10:23:37.197Z,75.60
2018-12-23T10:26:14.080Z,75.33
2018-12-23T10:28:47.803Z,75.91
2018-12-23T10:31:18.418Z,75.44
2018-12-23T10:33:50.491Z,75.31
2018-12-23T10:36:25.976Z,75.67
2018-12-23T10:38:55.688Z,74.99
2018-12-23T10:41:25.230Z,74.52
2018-12-23T10:43:58.959Z,74.43
2018-12-23T10:46:34.620Z,74.50
2018-12-23T10:49:04.478Z,74.06
2018-12-23T10:51:36.972Z,73.69
2018-12-23T10:54:06.587Z,73.28
2018-12-23T10:56:36.229Z,72.71
2018-12-23T10:59:08.550Z,72.33
2018-12-23T11:01:38.045Z,70.75
2018-12-23T11:04:07.619Z,73.28
2018-12-23T11:06:38.240Z,72.48
2018-12-23T11:09:17.136Z,73.00
2018-12-23T11:11:48.029Z,73.85
2018-12-23T11:14:22.243Z,74.01
2018-12-23T11:16:51.794Z,73.56
2018-12-23T11:19:21.701Z,74.12
2018-12-23T11:21:51.233Z,74.15
2018-12-23T11:24:20.799Z,74.55
2018-12-23T11:26:50.366Z,74.17
2018-12-23T11:29:21.463Z,74.23
2018-12-23T11:31:51.447Z,73.97
2018-12-23T11:34:20.999Z,73.98
2018-12-23T11:36:51.831Z,73.71
2018-12-23T11:39:26.659Z,72.79
2018-12-23T11:41:56.184Z,73.58
2018-12-23T11:44:31.113Z,74.86
2018-12-23T11:47:05.506Z,74.99
2018-12-23T11:49:37.901Z,74.23
2018-12-23T11:52:07.513Z,74.77
2018-12-23T11:54:37.044Z,74.18
2018-12-23T11:57:06.567Z,74.66
2018-12-23T11:59:36.129Z,74.80
2018-12-23T12:02:05.710Z,74.26
2018-12-23T12:04:35.325Z,74.77
2018-12-23T12:07:05.649Z,75.17
2018-12-23T12:09:36.919Z,74.46
2018-12-23T12:12:06.453Z,74.71
2018-12-23T12:14:35.973Z,74.20
2018-12-23T12:17:05.600Z,76.05
2018-12-23T12:19:35.144Z,76.34
2018-12-23T12:22:07.148Z,75.77
2018-12-23T12:24:40.219Z,76.94
2018-12-23T12:27:20.778Z,76.91
2018-12-23T12:29:52.287Z,75.62
2018-12-23T12:32:21.847Z,75.89
2018-12-23T12:34:54.519Z,75.72
2018-12-23T12:37:24.064Z,76.46
2018-12-23T12:39:54.841Z,75.75
2018-12-23T12:42:24.396Z,76.85
2018-12-23T12:44:57.932Z,77.29
2018-12-23T12:47:27.564Z,77.02
2018-12-23T12:50:00.836Z,77.67
2018-12-23T12:52:30.433Z,77.66
2018-12-23T12:54:59.973Z,78.12
2018-12-23T12:57:29.579Z,78.17
2018-12-23T13:00:02.954Z,78.28
2018-12-23T13:02:34.942Z,78.09
2018-12-23T13:05:05.959Z,77.31
2018-12-23T13:07:45.747Z,78.86
2018-12-23T13:10:18.582Z,79.04
2018-12-23T13:12:48.374Z,79.13
2018-12-23T13:15:17.993Z,78.64
2018-12-23T13:17:51.062Z,80.16
2018-12-23T13:20:20.574Z,80.99
2018-12-23T13:22:50.146Z,80.20
2018-12-23T13:25:19.678Z,81.91
2018-12-23T13:27:49.324Z,81.12
2018-12-23T13:30:23.129Z,81.24
2018-12-23T13:32:55.610Z,80.41
2018-12-23T13:35:25.273Z,81.49
2018-12-23T13:37:54.869Z,81.07
2018-12-23T13:40:51.625Z,80.79
2018-12-23T13:44:14.340Z,79.59
2018-12-23T13:47:19.723Z,79.91
2018-12-23T13:50:25.863Z,78.86
2018-12-23T13:53:32.157Z,79.36
2018-12-23T13:56:44.320Z,79.86
2018-12-23T13:59:39.509Z,80.16
2018-12-23T14:03:02.527Z,79.49
2018-12-23T14:06:11.744Z,79.00
2018-12-23T14:08:58.284Z,80.53
2018-12-23T14:11:59.766Z,79.93
2018-12-23T14:14:31.581Z,80.96
2018-12-23T14:17:06.539Z,82.52
2018-12-23T14:19:36.046Z,81.85
2018-12-23T14:22:05.558Z,82.69
2018-12-23T14:24:36.490Z,82.10
2018-12-23T14:27:06.148Z,83.29
2018-12-23T14:29:39.973Z,83.01
2018-12-23T14:32:15.551Z,84.00
2018-12-23T14:34:47.899Z,84.33
2018-12-23T14:37:17.448Z,85.83
2018-12-23T14:39:47.421Z,86.36
2018-12-23T14:42:21.131Z,87.07
2018-12-23T14:44:55.788Z,85.64
2018-12-23T14:47:26.598Z,86.10
2018-12-23T14:49:56.344Z,86.60
2018-12-23T14:52:25.886Z,87.61
2018-12-23T14:54:58.431Z,86.94
2018-12-23T14:57:27.954Z,87.66
2018-12-23T14:59:57.498Z,87.96
2018-12-23T15:02:27.074Z,87.23
2018-12-23T15:04:56.661Z,87.61
2018-12-23T15:07:26.191Z,88.61
2018-12-23T15:09:55.759Z,88.75
2018-12-23T15:12:26.858Z,89.73
2018-12-23T15:14:57.496Z,89.40
2018-12-23T15:17:29.792Z,89.58
2018-12-23T15:19:59.335Z,89.59
2018-12-23T15:22:30.490Z,89.19
2018-12-23T15:25:02.507Z,89.09
2018-12-23T15:27:34.582Z,89.33
2018-12-23T15:30:04.524Z,89.32
2018-12-23T15:32:35.994Z,90.18
2018-12-23T15:35:15.390Z,89.79
2018-12-23T15:37:45.060Z,89.32
2018-12-23T15:40:17.941Z,89.65
2018-12-23T15:42:49.953Z,89.98
2018-12-23T15:45:23.284Z,90.08
2018-12-23T15:48:01.916Z,89.78
2018-12-23T15:50:31.999Z,89.61
2018-12-23T15:53:01.627Z,89.66
2018-12-23T15:55:32.542Z,89.68
2018-12-23T15:58:02.153Z,90.20
2018-12-23T16:00:32.382Z,89.76
2018-12-23T16:03:07.244Z,89.17
2018-12-23T16:05:36.839Z,88.96
2018-12-23T16:08:11.167Z,88.67
2018-12-23T16:10:41.198Z,89.20
2018-12-23T16:13:10.722Z,90.08
2018-12-23T16:15:42.753Z,90.30
2018-12-23T16:18:13.335Z,89.91
2018-12-23T16:20:43.244Z,90.20
2018-12-23T16:23:14.013Z,89.55
2018-12-23T16:25:43.569Z,89.70
2018-12-23T16:28:15.710Z,89.40
2018-12-23T16:30:48.800Z,89.50
2018-12-23T16:33:19.386Z,89.58
2018-12-23T16:35:51.797Z,90.37
2018-12-23T16:38:21.352Z,90.63
2018-12-23T16:40:50.939Z,90.91
2018-12-23T16:43:20.471Z,90.19
2018-12-23T16:45:50.045Z,90.71
2018-12-23T16:48:21.044Z,90.67
2018-12-23T16:50:50.590Z,92.12
2018-12-23T16:53:31.482Z,92.37
2018-12-23T16:56:02.358Z,91.20
2018-12-23T16:58:33.461Z,91.80
2018-12-23T17:01:04.692Z,92.57
2018-12-23T17:03:40.232Z,92.53
2018-12-23T17:06:10.072Z,92.58
2018-12-23T17:08:39.638Z,92.10
2018-12-23T17:11:09.161Z,92.20
2018-12-23T17:13:41.977Z,92.32
2018-12-23T17:16:16.350Z,91.43
2018-12-23T17:18:48.276Z,91.91
2018-12-23T17:21:21.431Z,92.13
2018-12-23T17:23:51.013Z,92.43
2018-12-23T17:26:20.560Z,91.67
2018-12-23T17:28:50.154Z,91.64
2018-12-23T17:31:21.326Z,91.74
2018-12-23T17:33:51.854Z,92.15
2018-12-23T17:36:21.666Z,91.17
2018-12-23T17:38:52.795Z,91.47
2018-12-23T17:41:27.656Z,91.57
2018-12-23T17:43:58.652Z,91.03
2018-12-23T17:46:32.489Z,91.00
2018-12-23T17:49:02.019Z,91.11
2018-12-23T17:51:31.838Z,89.98
2018-12-23T17:54:06.097Z,90.90
2018-12-23T17:56:37.866Z,91.00
2018-12-23T17:59:08.483Z,91.30
2018-12-23T18:01:41.179Z,91.58
2018-12-23T18:04:18.015Z,91.50
2018-12-23T18:06:47.967Z,91.82
2018-12-23T18:09:18.896Z,91.89
2018-12-23T18:11:48.472Z,90.95
2018-12-23T18:14:18.462Z,91.66
2018-12-23T18:16:48.005Z,92.40
2018-12-23T18:19:20.365Z,92.49
2018-12-23T18:21:51.684Z,92.14
2018-12-23T18:24:28.399Z,91.36
2018-12-23T18:26:57.913Z,91.56
2018-12-23T18:29:30.789Z,91.91
2018-12-23T18:32:06.923Z,91.75
2018-12-23T18:34:38.803Z,91.74
2018-12-23T18:37:10.477Z,91.53
2018-12-23T18:39:48.846Z,90.85
2018-12-23T18:42:18.366Z,90.61
2018-12-23T18:44:50.995Z,91.06
2018-12-23T18:47:23.311Z,91.73
2018-12-23T18:49:54.539Z,91.47
2018-12-23T18:52:27.386Z,90.96
2018-12-23T18:54:56.919Z,90.42
2018-12-23T18:57:30.138Z,90.81
2018-12-23T18:59:59.680Z,90.12
2018-12-23T19:02:35.072Z,90.56
2018-12-23T19:05:07.496Z,90.20
2018-12-23T19:07:40.389Z,90.08
2018-12-23T19:11:00.309Z,90.21
2018-12-23T19:14:05.356Z,90.41
2018-12-23T19:17:19.216Z,90.35
2018-12-23T19:20:27.496Z,89.95
2018-12-23T19:23:46.175Z,88.10
2018-12-23T19:26:41.420Z,89.00
2018-12-23T19:29:41.035Z,89.35
2018-12-23T19:32:42.747Z,89.68
2018-12-23T19:35:50.396Z,89.61
2018-12-23T19:39:08.729Z,89.66
2018-12-23T19:42:24.592Z,89.78
2018-12-23T19:45:29.890Z,89.88
2018-12-23T19:48:39.210Z,89.93
2018-12-23T19:51:40.031Z,90.07
2018-12-23T19:54:34.270Z,89.56
2018-12-23T19:57:39.773Z,90.05
2018-12-23T20:00:46.187Z,90.59
2018-12-23T20:03:53.758Z,90.53
2018-12-23T20:06:59.000Z,90.20
2018-12-23T20:10:05.442Z,88.11
2018-12-23T20:13:06.304Z,90.04
2018-12-23T20:16:07.739Z,89.96
2018-12-23T20:19:18.865Z,90.54
2018-12-23T20:22:32.584Z,90.63
2018-12-23T20:25:26.124Z,90.24
2018-12-23T20:28:38.723Z,90.80
2018-12-23T20:35:14.327Z,90.70
2018-12-23T20:38:09.188Z,90.21
2018-12-23T20:41:14.476Z,90.35
2018-12-23T20:44:52.287Z,90.48
2018-12-23T20:47:49.632Z,90.67
2018-12-23T20:50:58.526Z,90.71
2018-12-23T20:54:20.136Z,89.68
2018-12-23T20:57:29.437Z,90.25
2018-12-23T21:00:52.041Z,90.18
2018-12-23T21:04:06.814Z,89.02
2018-12-23T21:07:16.032Z,89.72
2018-12-23T21:10:11.815Z,90.13
2018-12-23T21:13:01.608Z,90.26
2018-12-23T21:16:01.099Z,89.23
2018-12-23T21:19:08.455Z,89.26
2018-12-23T21:22:09.494Z,89.11
2018-12-23T21:25:16.276Z,89.32
2018-12-23T21:28:45.580Z,89.05
2018-12-23T21:32:16.686Z,89.26
2018-12-23T21:35:22.811Z,88.31
2018-12-23T21:38:29.976Z,88.78
2018-12-23T21:41:46.144Z,89.17
2018-12-23T21:44:50.940Z,89.48
2018-12-23T21:47:49.423Z,90.10
2018-12-23T21:51:16.764Z,90.37
2018-12-23T21:54:20.546Z,90.80
2018-12-23T21:57:58.483Z,91.34
2018-12-23T22:01:04.078Z,92.12
2018-12-23T22:04:11.163Z,91.22
2018-12-23T22:07:13.127Z,92.33
2018-12-23T22:10:05.936Z,92.35
2018-12-23T22:13:24.749Z,91.95
2018-12-23T22:15:57.445Z,93.03
2018-12-23T22:18:27.981Z,93.12
2018-12-23T22:20:57.954Z,93.21
2018-12-23T22:23:29.310Z,92.49
2018-12-23T22:26:03.589Z,93.91
2018-12-23T22:28:35.385Z,93.44
2018-12-23T22:31:04.920Z,93.19
2018-12-23T22:33:40.702Z,93.31
2018-12-23T22:36:11.630Z,92.59
2018-12-23T22:38:42.437Z,93.13
2018-12-23T22:41:20.473Z,92.63
2018-12-23T22:43:50.007Z,92.64
2018-12-23T22:46:21.478Z,93.42
2018-12-23T22:48:54.254Z,93.50
2018-12-23T22:51:25.680Z,93.58
2018-12-23T22:53:55.703Z,93.22
2018-12-23T22:56:28.104Z,93.00
2018-12-23T22:58:59.186Z,93.13
2018-12-23T23:01:39.899Z,93.30
2018-12-23T23:04:07.947Z,93.31
2018-12-23T23:06:37.564Z,93.73
2018-12-23T23:09:11.088Z,92.78
2018-12-23T23:11:40.671Z,92.93
2018-12-23T23:14:13.765Z,93.31
2018-12-23T23:16:45.575Z,92.71
2018-12-23T23:19:15.106Z,92.35
2018-12-23T23:21:44.707Z,92.46
2018-12-23T23:24:14.240Z,93.73
2018-12-23T23:26:44.265Z,93.55
2018-12-23T23:29:13.868Z,93.71
2018-12-23T23:31:43.377Z,93.27
2018-12-23T23:34:14.466Z,93.57
2018-12-23T23:36:46.874Z,94.48
2018-12-23T23:39:16.519Z,94.06
2018-12-23T23:41:48.399Z,94.37
2018-12-23T23:44:22.434Z,94.34
2018-12-23T23:46:55.979Z,94.23
2018-12-23T23:49:28.372Z,94.34
2018-12-23T23:51:59.091Z,94.20
2018-12-23T23:54:33.141Z,93.56
2018-12-23T23:57:05.724Z,94.02
2018-12-23T23:59:37.260Z,93.74
